createdAt,value
2023-02-25T00:03:19.569Z,100.00
2023-02-25T00:08:21.446Z,100.00
2023-02-25T00:13:24.472Z,100.00
2023-02-25T00:18:26.353Z,100.00
2023-02-25T00:23:28.500Z,100.00
2023-02-25T00:28:31.611Z,100.00
2023-02-25T00:33:33.299Z,100.00
2023-02-25T00:38:36.203Z,100.00
2023-02-25T00:43:39.909Z,100.00
2023-02-25T00:48:42.117Z,100.00
2023-02-25T00:53:44.032Z,100.00
2023-02-25T00:58:48.341Z,100.00
2023-02-25T01:03:50.969Z,100.00
2023-02-25T01:08:52.936Z,100.00
2023-02-25T01:13:56.142Z,100.00
2023-02-25T01:18:59.888Z,100.00
2023-02-25T01:24:03.902Z,100.00
2023-02-25T01:29:08.294Z,100.00
2023-02-25T01:34:12.563Z,100.00
2023-02-25T01:39:15.825Z,100.00
2023-02-25T01:44:19.980Z,100.00
2023-02-25T01:49:22.959Z,100.00
2023-02-25T01:54:24.633Z,100.00
2023-02-25T01:59:28.808Z,100.00
2023-02-25T02:04:30.533Z,100.00
2023-02-25T02:09:32.198Z,100.00
2023-02-25T02:14:39.034Z,100.00
2023-02-25T02:19:55.973Z,99.90
2023-02-25T02:25:31.338Z,99.50
2023-02-25T02:30:46.447Z,100.00
2023-02-25T02:35:51.733Z,99.68
2023-02-25T02:40:57.459Z,99.17
2023-02-25T02:46:03.259Z,99.06
2023-02-25T02:51:10.365Z,99.58
2023-02-25T02:56:12.909Z,99.54
2023-02-25T03:01:17.106Z,98.38
2023-02-25T03:06:23.608Z,98.61
2023-02-25T03:11:26.739Z,98.57
2023-02-25T03:16:31.075Z,98.57
2023-02-25T03:21:36.313Z,98.68
2023-02-25T03:26:38.242Z,98.01
2023-02-25T03:31:42.452Z,97.56
2023-02-25T03:36:47.905Z,96.76
2023-02-25T03:41:52.171Z,97.44
2023-02-25T03:46:53.870Z,98.51
2023-02-25T03:51:57.793Z,97.93
2023-02-25T03:56:59.519Z,97.62
2023-02-25T04:02:02.069Z,96.28
2023-02-25T04:07:05.234Z,95.80
2023-02-25T04:12:08.076Z,95.66
2023-02-25T04:17:13.086Z,95.11
2023-02-25T04:22:17.150Z,93.69
2023-02-25T04:27:18.900Z,93.67
2023-02-25T04:32:20.643Z,94.01
2023-02-25T04:37:23.752Z,93.65
2023-02-25T04:42:25.518Z,93.75
2023-02-25T04:47:27.223Z,93.50
2023-02-25T04:52:30.243Z,92.33
2023-02-25T04:57:31.949Z,93.09
2023-02-25T05:02:34.235Z,92.53
2023-02-25T05:07:37.311Z,92.75
2023-02-25T05:12:38.960Z,91.81
2023-02-25T05:17:40.689Z,90.58
2023-02-25T05:22:43.740Z,90.28
2023-02-25T05:27:45.397Z,90.52
2023-02-25T05:32:47.210Z,90.72
2023-02-25T05:37:50.277Z,90.56
2023-02-25T05:42:51.973Z,89.11
2023-02-25T05:47:53.649Z,89.03
2023-02-25T05:52:56.785Z,88.84
2023-02-25T05:57:58.461Z,88.64
2023-02-25T06:03:00.212Z,88.27
2023-02-25T06:08:03.258Z,86.71
2023-02-25T06:13:05.104Z,87.68
2023-02-25T06:18:06.842Z,87.16
2023-02-25T06:23:09.868Z,85.91
2023-02-25T06:28:11.546Z,85.34
2023-02-25T06:33:13.719Z,85.65
2023-02-25T06:38:16.741Z,84.08
2023-02-25T06:43:18.722Z,85.77
2023-02-25T06:48:20.457Z,85.42
2023-02-25T06:53:24.306Z,85.39
2023-02-25T06:58:26.052Z,86.39
2023-02-25T07:03:27.769Z,86.99
2023-02-25T07:08:31.133Z,88.92
2023-02-25T07:13:32.777Z,88.69
2023-02-25T07:18:34.461Z,89.51
2023-02-25T07:23:37.569Z,89.58
2023-02-25T07:28:39.299Z,90.05
2023-02-25T07:33:41.783Z,89.08
2023-02-25T07:38:45.086Z,89.48
2023-02-25T07:43:46.761Z,90.22
2023-02-25T07:48:48.741Z,90.23
2023-02-25T07:53:52.268Z,89.88
2023-02-25T07:58:54.018Z,90.18
2023-02-25T08:03:56.824Z,89.10
2023-02-25T08:08:59.806Z,89.24
2023-02-25T08:14:02.050Z,88.38
2023-02-25T08:19:04.045Z,87.36
2023-02-25T08:24:08.069Z,87.11
2023-02-25T08:29:09.724Z,87.75
2023-02-25T08:34:12.074Z,85.98
2023-02-25T08:39:15.066Z,85.56
2023-02-25T08:44:19.820Z,83.98
2023-02-25T08:49:21.902Z,82.95
2023-02-25T08:54:24.863Z,82.90
2023-02-25T08:59:26.548Z,83.37
2023-02-25T09:04:28.259Z,83.30
2023-02-25T09:09:31.833Z,82.10
2023-02-25T09:14:34.959Z,83.54
2023-02-25T09:19:38.730Z,84.58
2023-02-25T09:24:41.720Z,85.55
2023-02-25T09:29:43.607Z,88.07
2023-02-25T09:34:45.319Z,96.16
2023-02-25T09:39:48.332Z,88.82
2023-02-25T09:44:50.879Z,89.34
2023-02-25T09:49:55.364Z,88.93
2023-02-25T09:55:00.788Z,87.53
2023-02-25T10:00:07.102Z,85.12
2023-02-25T10:05:21.626Z,81.97
2023-02-25T10:10:27.153Z,78.98
2023-02-25T10:15:33.512Z,73.16
2023-02-25T10:20:40.192Z,67.86
2023-02-25T10:25:45.539Z,67.36
2023-02-25T10:30:49.061Z,67.11
2023-02-25T10:35:52.347Z,60.64
2023-02-25T10:40:56.626Z,57.24
2023-02-25T10:46:00.717Z,57.86
2023-02-25T10:51:05.791Z,60.26
2023-02-25T10:56:08.864Z,61.87
2023-02-25T11:01:15.534Z,66.72
2023-02-25T11:06:21.180Z,66.95
2023-02-25T11:11:26.836Z,56.99
2023-02-25T11:16:29.061Z,59.40
2023-02-25T11:21:33.049Z,65.41
2023-02-25T11:26:37.870Z,68.54
2023-02-25T11:31:40.775Z,72.46
2023-02-25T11:36:42.714Z,74.14
2023-02-25T11:41:46.415Z,70.51
2023-02-25T11:46:54.367Z,67.29
2023-02-25T11:51:59.656Z,68.02
2023-02-25T11:57:05.292Z,69.30
2023-02-25T12:02:20.520Z,69.83
2023-02-25T12:08:05.141Z,70.74
2023-02-25T12:13:46.650Z,70.74
2023-02-25T12:19:20.565Z,72.40
2023-02-25T12:24:40.645Z,75.05
2023-02-25T12:30:00.404Z,74.26
2023-02-25T12:35:34.567Z,72.86
2023-02-25T12:40:47.717Z,67.51
2023-02-25T12:46:04.251Z,66.48
2023-02-25T12:51:14.749Z,64.85
2023-02-25T12:56:35.546Z,64.60
2023-02-25T13:02:01.890Z,67.23
2023-02-25T13:07:30.717Z,68.90
2023-02-25T13:12:53.819Z,70.37
2023-02-25T13:18:09.737Z,72.86
2023-02-25T13:23:21.016Z,75.20
2023-02-25T13:28:29.549Z,74.55
2023-02-25T13:33:42.395Z,72.01
2023-02-25T13:39:02.709Z,68.96
2023-02-25T13:44:19.320Z,67.51
2023-02-25T13:49:57.761Z,66.59
2023-02-25T13:55:10.000Z,64.83
2023-02-25T14:00:39.030Z,64.19
2023-02-25T14:06:17.830Z,66.47
2023-02-25T14:11:28.980Z,64.53
2023-02-25T14:16:49.418Z,64.41
2023-02-25T14:22:12.227Z,60.88
2023-02-25T14:27:20.708Z,58.90
2023-02-25T14:32:34.266Z,57.91
2023-02-25T14:37:38.485Z,58.25
2023-02-25T14:42:54.067Z,57.33
2023-02-25T14:47:57.807Z,56.51
2023-02-25T14:53:08.468Z,54.91
2023-02-25T14:58:39.004Z,53.54
2023-02-25T15:04:14.301Z,53.24
2023-02-25T15:09:35.950Z,50.61
2023-02-25T15:14:47.908Z,52.20
2023-02-25T15:20:00.785Z,52.57
2023-02-25T15:25:36.859Z,52.87
2023-02-25T15:31:07.942Z,52.80
2023-02-25T15:36:27.537Z,53.15
2023-02-25T15:41:54.721Z,51.84
2023-02-25T15:47:11.304Z,50.99
2023-02-25T15:52:13.414Z,51.49
2023-02-25T15:57:39.041Z,52.63
2023-02-25T16:02:40.997Z,51.31
2023-02-25T16:07:44.280Z,52.88
2023-02-25T16:12:48.162Z,52.92
2023-02-25T16:17:49.874Z,53.31
2023-02-25T16:22:53.469Z,54.23
2023-02-25T16:27:57.909Z,54.45
2023-02-25T16:33:01.949Z,56.48
2023-02-25T16:38:07.800Z,63.56
2023-02-25T16:43:13.426Z,66.75
2023-02-25T16:48:18.526Z,66.76
2023-02-25T16:53:21.312Z,65.17
2023-02-25T16:58:25.059Z,67.00
2023-02-25T17:03:27.878Z,66.40
2023-02-25T17:08:29.542Z,67.15
2023-02-25T17:13:34.264Z,66.61
2023-02-25T17:18:37.878Z,66.07
2023-02-25T17:23:40.109Z,66.91
2023-02-25T17:28:43.981Z,66.43
2023-02-25T17:33:47.237Z,66.23
2023-02-25T17:38:49.884Z,66.17
2023-02-25T17:43:52.896Z,65.29
2023-02-25T17:48:55.695Z,63.91
2023-02-25T17:53:58.231Z,63.36
2023-02-25T17:59:03.432Z,63.84
2023-02-25T18:04:05.579Z,64.93
2023-02-25T18:09:27.517Z,64.63
2023-02-25T18:14:34.104Z,65.88
2023-02-25T18:19:37.677Z,66.93
2023-02-25T18:24:39.388Z,66.83
2023-02-25T18:29:42.544Z,66.71
2023-02-25T18:34:44.345Z,65.80
2023-02-25T18:39:46.622Z,66.03
2023-02-25T18:44:50.055Z,66.37
2023-02-25T18:49:51.812Z,65.76
2023-02-25T18:54:53.506Z,66.23
2023-02-25T18:59:56.528Z,66.72
2023-02-25T19:04:58.363Z,65.52
2023-02-25T19:10:00.136Z,65.54
2023-02-25T19:15:04.880Z,65.48
2023-02-25T19:20:08.208Z,65.33
2023-02-25T19:25:14.175Z,65.06
2023-02-25T19:30:18.005Z,65.22
2023-02-25T19:35:19.820Z,65.94
2023-02-25T19:40:21.749Z,66.61
2023-02-25T19:45:25.102Z,67.14
2023-02-25T19:50:27.052Z,67.50
2023-02-25T19:55:28.827Z,67.52
2023-02-25T20:00:32.047Z,68.80
2023-02-25T20:05:34.756Z,70.46
2023-02-25T20:10:36.474Z,70.03
2023-02-25T20:15:39.552Z,70.23
2023-02-25T20:20:41.646Z,71.59
2023-02-25T20:25:43.391Z,71.91
2023-02-25T20:30:46.448Z,71.67
2023-02-25T20:35:48.890Z,72.45
2023-02-25T20:40:50.744Z,73.12
2023-02-25T20:45:54.117Z,72.63
2023-02-25T20:50:56.185Z,70.03
2023-02-25T20:55:58.008Z,69.74
2023-02-25T21:01:01.147Z,69.92
2023-02-25T21:06:02.899Z,69.73
2023-02-25T21:11:04.849Z,69.90
2023-02-25T21:16:08.169Z,69.39
2023-02-25T21:21:09.969Z,69.75
2023-02-25T21:26:11.779Z,70.12
2023-02-25T21:31:15.651Z,70.68
2023-02-25T21:36:17.621Z,70.87
2023-02-25T21:41:19.423Z,71.98
2023-02-25T21:46:22.663Z,73.04
2023-02-25T21:51:25.473Z,73.87
2023-02-25T21:56:27.949Z,74.94
2023-02-25T22:01:31.929Z,75.39
2023-02-25T22:06:33.738Z,75.96
2023-02-25T22:11:36.306Z,76.54
2023-02-25T22:16:39.979Z,77.23
2023-02-25T22:21:41.699Z,78.16
2023-02-25T22:26:45.681Z,78.60
2023-02-25T22:31:49.025Z,79.14
2023-02-25T22:36:50.842Z,79.12
2023-02-25T22:41:52.623Z,79.79
2023-02-25T22:46:55.689Z,80.04
2023-02-25T22:51:57.383Z,80.29
2023-02-25T22:56:59.144Z,80.57
2023-02-25T23:02:02.752Z,81.00
2023-02-25T23:07:04.441Z,81.56
2023-02-25T23:12:06.146Z,82.08
2023-02-25T23:17:10.022Z,82.19
2023-02-25T23:22:19.087Z,82.05
2023-02-25T23:27:20.771Z,83.12
2023-02-25T23:32:23.869Z,83.24
2023-02-25T23:37:25.573Z,83.46
2023-02-25T23:42:27.307Z,83.48
2023-02-25T23:47:30.726Z,84.08
2023-02-25T23:52:32.459Z,84.42
2023-02-25T23:57:34.161Z,84.67
